createdAt,value
2018-09-01T00:00:56.030Z,81.25
2018-09-01T00:01:56.212Z,80.77
2018-09-01T00:02:56.411Z,81.63
2018-09-01T00:03:56.565Z,81.54
2018-09-01T00:04:56.746Z,81.35
2018-09-01T00:05:56.897Z,81.54
2018-09-01T00:06:57.076Z,81.92
2018-09-01T00:07:57.243Z,81.82
2018-09-01T00:08:57.418Z,81.92
2018-09-01T00:09:57.586Z,81.92
2018-09-01T00:10:57.761Z,81.35
2018-09-01T00:11:57.939Z,82.07
2018-09-01T00:12:58.353Z,82.73
2018-09-01T00:13:58.289Z,82.45
2018-09-01T00:14:58.459Z,82.83
2018-09-01T00:15:58.640Z,83.12
2018-09-01T00:16:58.799Z,84.26
2018-09-01T00:17:58.973Z,84.41
2018-09-01T00:18:59.143Z,84.60
2018-09-01T00:19:59.307Z,84.64
2018-09-01T00:20:59.485Z,84.45
2018-09-01T00:21:59.650Z,84.26
2018-09-01T00:22:59.797Z,84.26
2018-09-01T00:24:00.019Z,84.07
2018-09-01T00:25:00.177Z,83.88
2018-09-01T00:26:00.354Z,84.07
2018-09-01T00:27:00.524Z,83.78
2018-09-01T00:28:00.703Z,83.88
2018-09-01T00:29:00.875Z,83.50
2018-09-01T00:30:01.061Z,83.78
2018-09-01T00:31:01.233Z,83.59
2018-09-01T00:32:01.390Z,83.78
2018-09-01T00:33:01.559Z,83.50
2018-09-01T00:34:01.758Z,83.50
2018-09-01T00:35:01.915Z,83.40
2018-09-01T00:36:02.081Z,83.02
2018-09-01T00:37:02.243Z,83.31
2018-09-01T00:38:02.418Z,83.40
2018-09-01T00:39:02.585Z,83.50
2018-09-01T00:40:02.760Z,83.88
2018-09-01T00:41:02.940Z,83.88
2018-09-01T00:42:03.102Z,84.07
2018-09-01T00:43:03.279Z,84.16
2018-09-01T00:44:03.454Z,83.88
2018-09-01T00:45:03.611Z,83.88
2018-09-01T00:46:03.782Z,84.16
2018-09-01T00:47:03.962Z,83.88
2018-09-01T00:48:04.138Z,83.88
2018-09-01T00:49:04.326Z,84.22
2018-09-01T00:50:04.512Z,84.03
2018-09-01T00:51:04.692Z,84.60
2018-09-01T00:52:04.861Z,84.41
2018-09-01T00:53:05.028Z,84.41
2018-09-01T00:54:05.208Z,84.31
2018-09-01T00:55:05.371Z,84.98
2018-09-01T00:56:05.542Z,84.41
2018-09-01T00:57:05.715Z,84.79
2018-09-01T00:58:05.889Z,84.69
2018-09-01T00:59:06.061Z,85.17
2018-09-01T01:00:06.239Z,85.17
2018-09-01T01:01:06.415Z,84.45
2018-09-01T01:02:06.594Z,84.26
2018-09-01T01:03:07.009Z,84.36
2018-09-01T01:04:06.932Z,84.55
2018-09-01T01:05:07.105Z,84.55
2018-09-01T01:06:07.285Z,84.64
2018-09-01T01:07:07.459Z,84.74
2018-09-01T01:08:07.629Z,84.60
2018-09-01T01:09:07.802Z,85.17
2018-09-01T01:10:07.961Z,85.36
2018-09-01T01:11:08.131Z,85.08
2018-09-01T01:12:08.295Z,84.88
2018-09-01T01:13:08.473Z,85.17
2018-09-01T01:14:08.636Z,84.12
2018-09-01T01:15:08.803Z,84.79
2018-09-01T01:16:08.988Z,84.98
2018-09-01T01:17:09.169Z,84.79
2018-09-01T01:18:09.348Z,85.17
2018-09-01T01:19:09.498Z,84.41
2018-09-01T01:20:09.689Z,84.31
2018-09-01T01:21:09.856Z,84.12
2018-09-01T01:22:10.033Z,84.88
2018-09-01T01:23:10.200Z,84.88
2018-09-01T01:24:10.369Z,85.27
2018-09-01T01:25:10.544Z,85.17
2018-09-01T01:26:10.960Z,85.46
2018-09-01T01:27:10.896Z,85.55
2018-09-01T01:28:11.057Z,85.17
2018-09-01T01:29:11.236Z,84.88
2018-09-01T01:30:11.408Z,85.46
2018-09-01T01:31:11.579Z,85.36
2018-09-01T01:32:11.749Z,85.46
2018-09-01T01:33:11.929Z,85.84
2018-09-01T01:34:12.099Z,86.12
2018-09-01T01:35:12.261Z,85.84
2018-09-01T01:36:12.434Z,85.93
2018-09-01T01:37:12.606Z,85.93
2018-09-01T01:38:12.786Z,85.93
2018-09-01T01:39:12.954Z,85.55
2018-09-01T01:40:13.124Z,86.36
2018-09-01T01:41:13.294Z,86.84
2018-09-01T01:42:13.464Z,87.03
2018-09-01T01:43:13.648Z,87.03
2018-09-01T01:44:13.832Z,87.13
2018-09-01T01:45:13.997Z,86.94
2018-09-01T01:46:14.161Z,86.55
2018-09-01T01:47:14.333Z,86.84
2018-09-01T01:48:14.512Z,86.84
2018-09-01T01:49:14.919Z,86.65
2018-09-01T01:50:14.856Z,86.41
2018-09-01T01:51:15.028Z,86.75
2018-09-01T01:52:15.204Z,86.65
2018-09-01T01:53:15.370Z,86.65
2018-09-01T01:54:15.540Z,86.94
2018-09-01T01:55:15.711Z,87.13
2018-09-01T01:56:15.888Z,87.32
2018-09-01T01:57:16.061Z,87.79
2018-09-01T01:58:16.233Z,87.70
2018-09-01T01:59:16.400Z,87.60
2018-09-01T02:00:16.569Z,87.51
2018-09-01T02:01:16.753Z,87.89
2018-09-01T02:02:16.936Z,87.98
2018-09-01T02:03:17.105Z,87.98
2018-09-01T02:04:17.278Z,87.79
2018-09-01T02:05:17.448Z,87.89
2018-09-01T02:06:17.622Z,87.70
2018-09-01T02:07:17.799Z,88.08
2018-09-01T02:08:17.961Z,87.75
2018-09-01T02:09:18.138Z,87.98
2018-09-01T02:10:18.313Z,88.08
2018-09-01T02:11:18.482Z,87.98
2018-09-01T02:12:18.654Z,88.27
2018-09-01T02:13:18.824Z,88.04
2018-09-01T02:14:19.006Z,88.60
2018-09-01T02:15:19.170Z,89.08
2018-09-01T02:16:19.329Z,88.51
2018-09-01T02:17:19.521Z,88.51
2018-09-01T02:18:19.693Z,88.42
2018-09-01T02:19:19.875Z,88.79
2018-09-01T02:20:20.038Z,88.51
2018-09-01T02:21:20.199Z,88.93
2018-09-01T02:22:20.660Z,88.65
2018-09-01T02:23:20.577Z,87.98
2018-09-01T02:24:20.741Z,87.79
2018-09-01T02:25:20.924Z,88.08
2018-09-01T02:26:21.069Z,88.13
2018-09-01T02:27:21.236Z,88.51
2018-09-01T02:28:21.416Z,88.79
2018-09-01T02:29:21.595Z,88.89
2018-09-01T02:30:21.769Z,89.08
2018-09-01T02:31:21.932Z,88.79
2018-09-01T02:32:22.097Z,88.79
2018-09-01T02:33:22.270Z,89.18
2018-09-01T02:34:22.445Z,88.89
2018-09-01T02:36:22.763Z,88.23
2018-09-01T02:37:22.961Z,87.85
2018-09-01T02:38:23.125Z,87.60
2018-09-01T02:39:23.310Z,87.65
2018-09-01T02:40:23.474Z,88.42
2018-09-01T02:41:23.659Z,88.60
2018-09-01T02:42:23.832Z,88.23
2018-09-01T02:43:24.011Z,87.70
2018-09-01T02:44:24.169Z,87.89
2018-09-01T02:45:24.349Z,87.60
2018-09-01T02:46:24.508Z,87.23
2018-09-01T02:47:24.694Z,87.70
2018-09-01T02:48:24.865Z,87.32
2018-09-01T02:49:25.025Z,88.04
2018-09-01T02:50:25.202Z,88.04
2018-09-01T02:51:25.384Z,88.32
2018-09-01T02:52:25.555Z,88.51
2018-09-01T02:53:25.728Z,89.18
2018-09-01T02:54:25.896Z,89.84
2018-09-01T02:55:26.075Z,89.75
2018-09-01T02:56:26.247Z,90.03
2018-09-01T02:57:26.420Z,89.75
2018-09-01T02:58:26.587Z,89.56
2018-09-01T02:59:26.763Z,89.84
2018-09-01T03:00:26.936Z,89.08
2018-09-01T03:01:27.129Z,88.70
2018-09-01T03:02:27.274Z,88.79
2018-09-01T03:03:27.449Z,88.70
2018-09-01T03:04:27.630Z,88.79
2018-09-01T03:05:27.795Z,88.79
2018-09-01T03:06:27.970Z,87.56
2018-09-01T03:07:28.144Z,87.65
2018-09-01T03:09:28.484Z,87.79
2018-09-01T03:10:28.668Z,87.51
2018-09-01T03:11:28.844Z,87.65
2018-09-01T03:12:29.017Z,87.75
2018-09-01T03:13:29.194Z,87.75
2018-09-01T03:14:29.368Z,88.04
2018-09-01T03:15:29.544Z,87.94
2018-09-01T03:16:29.715Z,88.32
2018-09-01T03:17:29.899Z,88.04
2018-09-01T03:18:30.052Z,88.79
2018-09-01T03:19:30.209Z,88.32
2018-09-01T03:20:30.406Z,88.70
2018-09-01T03:21:30.576Z,88.42
2018-09-01T03:22:30.716Z,88.79
2018-09-01T03:23:30.894Z,88.89
2018-09-01T03:24:31.053Z,88.99
2018-09-01T03:25:31.263Z,88.70
2018-09-01T03:26:31.445Z,88.32
2018-09-01T03:27:31.585Z,88.89
2018-09-01T03:28:31.748Z,89.08
2018-09-01T03:29:31.930Z,88.99
2018-09-01T03:30:32.109Z,88.99
2018-09-01T03:31:32.300Z,88.79
2018-09-01T03:32:32.464Z,88.79
2018-09-01T03:33:32.644Z,88.79
2018-09-01T03:34:32.803Z,89.18
2018-09-01T03:35:32.982Z,88.51
2018-09-01T03:36:33.150Z,88.42
2018-09-01T03:37:33.310Z,88.42
2018-09-01T03:38:33.497Z,88.99
2018-09-01T03:39:33.654Z,89.37
2018-09-01T03:40:33.849Z,89.37
2018-09-01T03:41:34.036Z,89.75
2018-09-01T03:42:34.195Z,89.84
2018-09-01T03:43:34.365Z,90.47
2018-09-01T03:44:34.531Z,90.84
2018-09-01T03:45:34.705Z,91.32
2018-09-01T03:46:34.889Z,92.27
2018-09-01T03:47:35.061Z,90.94
2018-09-01T03:48:35.237Z,91.61
2018-09-01T03:49:35.413Z,90.84
2018-09-01T03:50:35.575Z,91.42
2018-09-01T03:51:35.742Z,91.32
2018-09-01T03:52:35.928Z,90.84
2018-09-01T03:53:36.102Z,90.56
2018-09-01T03:55:36.447Z,90.66
2018-09-01T03:56:36.609Z,91.03
2018-09-01T03:57:36.779Z,90.84
2018-09-01T03:58:36.956Z,90.94
2018-09-01T03:59:37.128Z,90.75
2018-09-01T04:00:37.303Z,90.84
2018-09-01T04:01:37.471Z,91.13
2018-09-01T04:02:37.652Z,91.70
2018-09-01T04:03:37.836Z,91.61
2018-09-01T04:04:37.989Z,91.61
2018-09-01T04:05:38.176Z,91.42
2018-09-01T04:06:38.351Z,92.18
2018-09-01T04:07:38.515Z,92.18
2018-09-01T04:08:38.685Z,91.13
2018-09-01T04:09:38.855Z,91.42
2018-09-01T04:10:39.040Z,91.03
2018-09-01T04:11:39.213Z,90.56
2018-09-01T04:12:39.380Z,90.56
2018-09-01T04:13:39.557Z,90.37
2018-09-01T04:14:39.731Z,90.28
2018-09-01T04:15:39.907Z,90.18
2018-09-01T04:16:40.075Z,90.47
2018-09-01T04:17:40.248Z,90.56
2018-09-01T04:18:40.430Z,90.66
2018-09-01T04:19:40.603Z,90.66
2018-09-01T04:20:40.771Z,91.03
2018-09-01T04:21:40.938Z,90.75
2018-09-01T04:22:41.369Z,90.80
2018-09-01T04:23:41.275Z,90.99
2018-09-01T04:24:41.425Z,90.94
2018-09-01T04:25:41.607Z,90.66
2018-09-01T04:26:41.777Z,90.56
2018-09-01T04:27:41.937Z,90.94
2018-09-01T04:28:42.136Z,90.84
2018-09-01T04:29:42.299Z,91.03
2018-09-01T04:30:42.472Z,90.94
2018-09-01T04:31:42.646Z,91.13
2018-09-01T04:32:42.829Z,91.70
2018-09-01T04:33:43.006Z,91.42
2018-09-01T04:34:43.147Z,91.32
2018-09-01T04:35:43.318Z,91.32
2018-09-01T04:36:43.484Z,91.80
2018-09-01T04:37:43.660Z,91.32
2018-09-01T04:38:43.839Z,91.51
2018-09-01T04:39:44.016Z,91.32
2018-09-01T04:40:44.178Z,90.84
2018-09-01T04:41:44.367Z,90.66
2018-09-01T04:42:44.534Z,91.03
2018-09-01T04:43:44.707Z,91.51
2018-09-01T04:44:45.120Z,91.32
2018-09-01T04:45:45.054Z,91.42
2018-09-01T04:46:45.210Z,91.13
2018-09-01T04:47:45.381Z,90.66
2018-09-01T04:48:45.571Z,90.75
2018-09-01T04:49:45.718Z,90.75
2018-09-01T04:50:45.894Z,90.84
2018-09-01T04:51:46.063Z,91.13
2018-09-01T04:52:46.234Z,90.84
2018-09-01T04:53:46.423Z,90.94
2018-09-01T04:54:46.607Z,90.47
2018-09-01T04:55:46.751Z,90.75
2018-09-01T04:56:46.929Z,90.47
2018-09-01T04:57:47.087Z,90.08
2018-09-01T04:58:47.262Z,89.70
2018-09-01T04:59:47.441Z,89.84
2018-09-01T05:00:47.646Z,89.61
2018-09-01T05:01:47.792Z,89.89
2018-09-01T05:02:47.972Z,89.65
2018-09-01T05:03:48.135Z,89.84
2018-09-01T05:04:48.310Z,89.61
2018-09-01T05:05:48.482Z,89.94
2018-09-01T05:06:48.672Z,89.56
2018-09-01T05:07:48.840Z,89.08
2018-09-01T05:08:49.038Z,89.18
2018-09-01T05:09:49.184Z,88.32
2018-09-01T05:10:49.353Z,88.70
2018-09-01T05:11:49.534Z,88.51
2018-09-01T05:12:49.715Z,88.70
2018-09-01T05:13:49.884Z,88.89
2018-09-01T05:14:50.069Z,89.18
2018-09-01T05:15:50.217Z,88.79
2018-09-01T05:16:50.393Z,88.89
2018-09-01T05:17:50.566Z,89.32
2018-09-01T05:18:50.746Z,89.14
2018-09-01T05:19:50.916Z,89.42
2018-09-01T05:20:51.148Z,90.66
2018-09-01T05:21:51.232Z,90.37
2018-09-01T05:22:51.430Z,90.56
2018-09-01T05:23:51.606Z,90.47
2018-09-01T05:24:51.767Z,90.47
2018-09-01T05:25:51.934Z,90.28
2018-09-01T05:26:52.109Z,89.70
2018-09-01T05:27:52.269Z,89.80
2018-09-01T05:28:52.447Z,89.32
2018-09-01T05:29:52.626Z,89.47
2018-09-01T05:30:52.803Z,89.56
2018-09-01T05:31:52.975Z,89.47
2018-09-01T05:32:53.158Z,88.99
2018-09-01T05:33:53.321Z,88.42
2018-09-01T05:34:53.495Z,88.23
2018-09-01T05:35:53.664Z,87.94
2018-09-01T05:36:53.840Z,87.70
2018-09-01T05:37:54.012Z,86.94
2018-09-01T05:38:54.176Z,86.55
2018-09-01T05:39:54.352Z,85.08
2018-09-01T05:40:54.760Z,84.22
2018-09-01T05:41:54.702Z,83.12
2018-09-01T05:42:54.881Z,82.73
2018-09-01T05:43:55.072Z,82.21
2018-09-01T05:44:55.223Z,83.31
2018-09-01T05:45:55.402Z,82.83
2018-09-01T05:46:55.566Z,82.31
2018-09-01T05:47:55.744Z,82.31
2018-09-01T05:48:55.907Z,82.31
2018-09-01T05:49:56.073Z,83.45
2018-09-01T05:50:56.257Z,83.07
2018-09-01T05:51:56.438Z,82.98
2018-09-01T05:52:56.581Z,83.36
2018-09-01T05:53:56.983Z,83.84
2018-09-01T05:54:57.164Z,82.64
2018-09-01T05:55:57.105Z,81.35
2018-09-01T05:56:57.283Z,79.67
2018-09-01T05:57:57.466Z,78.28
2018-09-01T05:58:57.635Z,75.98
2018-09-01T05:59:57.792Z,75.26
2018-09-01T06:00:57.969Z,74.30
2018-09-01T06:01:58.147Z,72.91
2018-09-01T06:02:58.317Z,72.33
2018-09-01T06:03:58.508Z,71.89
2018-09-01T06:04:58.672Z,70.81
2018-09-01T06:05:58.868Z,71.57
2018-09-01T06:06:59.028Z,72.11
2018-09-01T06:07:59.180Z,73.35
2018-09-01T06:08:59.357Z,74.55
2018-09-01T06:09:59.516Z,74.93
2018-09-01T06:10:59.694Z,74.84
2018-09-01T06:11:59.868Z,75.13
2018-09-01T06:13:00.065Z,75.89
2018-09-01T06:14:00.241Z,77.19
2018-09-01T06:15:00.459Z,77.76
2018-09-01T06:16:00.564Z,77.67
2018-09-01T06:18:01.018Z,77.32
2018-09-01T06:19:01.076Z,76.03
2018-09-01T06:20:01.284Z,74.05
2018-09-01T06:21:01.464Z,71.86
2018-09-01T06:22:01.644Z,71.13
2018-09-01T06:23:01.834Z,70.46
2018-09-01T06:24:02.030Z,72.11
2018-09-01T06:25:02.271Z,74.21
2018-09-01T06:26:02.702Z,74.69
2018-09-01T06:27:02.552Z,73.39
2018-09-01T06:28:02.688Z,71.89
2018-09-01T06:29:02.863Z,71.92
2018-09-01T06:30:03.075Z,73.83
2018-09-01T06:31:03.206Z,74.78
2018-09-01T06:32:03.379Z,74.53
2018-09-01T06:33:03.600Z,73.10
2018-09-01T06:34:03.719Z,73.10
2018-09-01T06:35:03.893Z,74.21
2018-09-01T06:36:04.067Z,74.40
2018-09-01T06:37:04.244Z,74.63
2018-09-01T06:38:04.428Z,73.58
2018-09-01T06:39:04.602Z,73.61
2018-09-01T06:40:04.774Z,71.64
2018-09-01T06:41:04.951Z,70.50
2018-09-01T06:42:05.109Z,70.01
2018-09-01T06:43:05.342Z,70.50
2018-09-01T06:44:05.500Z,71.32
2018-09-01T06:45:05.687Z,72.24
2018-09-01T06:46:05.862Z,72.62
2018-09-01T06:47:06.037Z,73.29
2018-09-01T06:48:06.215Z,74.02
2018-09-01T06:49:06.391Z,74.40
2018-09-01T06:50:06.569Z,75.70
2018-09-01T06:51:06.739Z,76.90
2018-09-01T06:52:06.932Z,78.33
2018-09-01T06:53:07.086Z,78.62
2018-09-01T06:54:07.271Z,79.57
2018-09-01T06:55:07.441Z,79.96
2018-09-01T06:56:07.654Z,79.33
2018-09-01T06:57:07.811Z,79.14
2018-09-01T06:58:07.986Z,79.38
2018-09-01T06:59:08.162Z,80.62
2018-09-01T07:00:08.333Z,79.96
2018-09-01T07:01:08.514Z,80.24
2018-09-01T07:02:08.691Z,80.05
2018-09-01T07:03:08.870Z,79.28
2018-09-01T07:04:09.053Z,79.71
2018-09-01T07:05:09.225Z,79.23
2018-09-01T07:06:09.406Z,78.37
2018-09-01T07:07:09.592Z,78.22
2018-09-01T07:08:09.744Z,77.36
2018-09-01T07:09:09.923Z,77.26
2018-09-01T07:10:10.088Z,77.08
2018-09-01T07:11:10.267Z,76.45
2018-09-01T07:12:10.452Z,75.10
2018-09-01T07:13:10.612Z,74.57
2018-09-01T07:14:11.037Z,73.52
2018-09-01T07:15:10.954Z,74.59
2018-09-01T07:16:11.130Z,74.91
2018-09-01T07:17:11.307Z,74.38
2018-09-01T07:18:11.479Z,72.22
2018-09-01T07:19:11.667Z,71.16
2018-09-01T07:20:11.836Z,70.72
2018-09-01T07:21:12.027Z,69.67
2018-09-01T07:22:12.183Z,70.05
2018-09-01T07:23:12.360Z,70.05
2018-09-01T07:24:12.536Z,68.94
2018-09-01T07:25:12.703Z,68.49
2018-09-01T07:26:12.884Z,68.27
2018-09-01T07:27:13.095Z,68.30
2018-09-01T07:28:13.229Z,66.99
2018-09-01T07:29:13.406Z,65.26
2018-09-01T07:30:13.751Z,64.72
2018-09-01T07:31:14.194Z,64.53
2018-09-01T07:32:13.932Z,64.43
2018-09-01T07:33:14.126Z,66.29
2018-09-01T07:34:14.303Z,66.48
2018-09-01T07:35:14.475Z,67.50
2018-09-01T07:36:14.670Z,68.80
2018-09-01T07:37:14.860Z,69.86
2018-09-01T07:38:15.035Z,69.95
2018-09-01T07:39:15.204Z,70.34
2018-09-01T07:40:15.373Z,70.72
2018-09-01T07:41:15.543Z,70.97
2018-09-01T07:42:15.761Z,72.94
2018-09-01T07:43:15.925Z,73.46
2018-09-01T07:44:16.097Z,73.46
2018-09-01T07:45:16.278Z,72.73
2018-09-01T07:46:16.469Z,71.83
2018-09-01T07:47:16.628Z,72.73
2018-09-01T07:48:16.807Z,72.50
2018-09-01T07:49:16.996Z,72.34
2018-09-01T07:50:17.169Z,72.44
2018-09-01T07:51:17.330Z,72.12
2018-09-01T07:52:17.523Z,72.50
2018-09-01T07:53:17.694Z,73.36
2018-09-01T07:54:17.882Z,73.71
2018-09-01T07:55:18.061Z,75.18
2018-09-01T07:56:18.333Z,74.99
2018-09-01T07:57:18.398Z,73.30
2018-09-01T07:58:18.583Z,72.25
2018-09-01T07:59:18.752Z,71.27
2018-09-01T08:00:18.930Z,69.39
2018-09-01T08:01:19.339Z,67.69
2018-09-01T08:02:19.282Z,66.10
2018-09-01T08:03:19.449Z,64.50
2018-09-01T08:04:19.626Z,63.54
2018-09-01T08:05:19.818Z,64.15
2018-09-01T08:06:19.981Z,62.23
2018-09-01T08:07:20.165Z,61.49
2018-09-01T08:08:20.334Z,60.82
2018-09-01T08:09:20.505Z,61.94
2018-09-01T08:10:20.679Z,62.16
2018-09-01T08:11:20.884Z,60.85
2018-09-01T08:12:21.057Z,60.37
2018-09-01T08:13:21.238Z,59.15
2018-09-01T08:14:21.549Z,59.12
2018-09-01T08:15:21.593Z,59.72
2018-09-01T08:16:21.765Z,58.79
2018-09-01T08:17:21.968Z,58.02
2018-09-01T08:18:22.167Z,57.31
2018-09-01T08:19:22.319Z,56.09
2018-09-01T08:20:22.480Z,55.12
2018-09-01T08:21:22.672Z,54.66
2018-09-01T08:22:22.846Z,54.47
2018-09-01T08:23:23.024Z,53.89
2018-09-01T08:24:23.206Z,54.44
2018-09-01T08:25:23.387Z,54.64
2018-09-01T08:26:23.554Z,54.18
2018-09-01T08:27:23.751Z,54.06
2018-09-01T08:28:23.924Z,53.99
2018-09-01T08:29:24.114Z,54.25
2018-09-01T08:30:24.296Z,55.51
2018-09-01T08:32:24.635Z,56.82
2018-09-01T08:33:24.823Z,56.92
2018-09-01T08:34:24.994Z,56.99
2018-09-01T08:35:25.171Z,58.72
2018-09-01T08:36:25.352Z,61.61
2018-09-01T08:37:25.557Z,63.02
2018-09-01T08:38:25.730Z,62.00
2018-09-01T08:39:25.893Z,60.72
2018-09-01T08:40:26.138Z,58.85
2018-09-01T08:41:26.254Z,58.60
2018-09-01T08:42:26.433Z,58.86
2018-09-01T08:43:26.614Z,59.85
2018-09-01T08:44:26.868Z,60.94
2018-09-01T08:45:27.100Z,61.07
2018-09-01T08:46:27.116Z,60.42
2018-09-01T08:47:27.296Z,60.69
2018-09-01T08:48:27.486Z,61.36
2018-09-01T08:49:27.655Z,60.78
2018-09-01T08:50:27.846Z,61.00
2018-09-01T08:51:28.032Z,59.85
2018-09-01T08:52:28.221Z,60.85
2018-09-01T08:53:28.402Z,63.86
2018-09-01T08:54:28.561Z,62.96
2018-09-01T08:55:28.750Z,61.16
2018-09-01T08:56:28.979Z,60.07
2018-09-01T08:57:29.128Z,59.56
2018-09-01T08:58:29.314Z,59.40
2018-09-01T08:59:29.486Z,60.88
2018-09-01T09:00:29.666Z,60.78
2018-09-01T09:01:29.846Z,59.78
2018-09-01T09:02:30.033Z,58.65
2018-09-01T09:03:30.209Z,57.98
2018-09-01T09:04:30.397Z,58.17
2018-09-01T09:06:30.756Z,56.25
2018-09-01T09:07:30.954Z,57.54
2018-09-01T09:08:31.122Z,57.14
2018-09-01T09:09:31.305Z,55.44
2018-09-01T09:10:31.518Z,53.44
2018-09-01T09:11:31.691Z,53.08
2018-09-01T09:12:31.868Z,53.47
2018-09-01T09:13:32.060Z,52.43
2018-09-01T09:14:32.228Z,52.43
2018-09-01T09:15:32.424Z,52.11
2018-09-01T09:16:32.593Z,52.59
2018-09-01T09:17:32.784Z,52.40
2018-09-01T09:18:33.017Z,55.41
2018-09-01T09:19:33.134Z,55.77
2018-09-01T09:20:33.339Z,58.73
2018-09-01T09:21:33.531Z,58.98
2018-09-01T09:22:33.711Z,58.15
2018-09-01T09:23:33.888Z,57.31
2018-09-01T09:24:34.077Z,58.15
2018-09-01T09:25:34.235Z,56.95
2018-09-01T09:26:34.435Z,57.12
2018-09-01T09:27:34.591Z,57.92
2018-09-01T09:28:34.785Z,56.47
2018-09-01T09:29:35.346Z,54.35
2018-09-01T09:30:35.135Z,53.29
2018-09-01T09:31:35.365Z,51.99
2018-09-01T09:32:35.468Z,50.50
2018-09-01T09:33:35.610Z,48.35
2018-09-01T09:34:35.837Z,47.77
2018-09-01T09:35:35.993Z,48.47
2018-09-01T09:36:36.181Z,47.80
2018-09-01T09:37:36.357Z,46.75
2018-09-01T09:38:36.541Z,47.14
2018-09-01T09:39:36.728Z,46.95
2018-09-01T09:40:36.912Z,46.51
2018-09-01T09:41:37.091Z,45.28
2018-09-01T09:42:37.274Z,45.98
2018-09-01T09:43:37.457Z,49.32
2018-09-01T09:44:37.632Z,51.84
2018-09-01T09:45:37.819Z,51.75
2018-09-01T09:46:38.010Z,50.62
2018-09-01T09:47:38.187Z,50.06
2018-09-01T09:48:38.342Z,48.95
2018-09-01T09:50:38.734Z,48.16
2018-09-01T09:51:38.892Z,49.75
2018-09-01T09:52:39.093Z,50.09
2018-09-01T09:53:39.273Z,48.01
2018-09-01T09:54:39.451Z,49.00
2018-09-01T09:55:39.643Z,48.74
2018-09-01T09:56:39.824Z,47.33
2018-09-01T09:57:39.981Z,47.85
2018-09-01T09:58:40.176Z,48.47
2018-09-01T09:59:40.357Z,48.08
2018-09-01T10:00:40.539Z,47.81
2018-09-01T10:01:40.764Z,48.37
2018-09-01T10:02:40.946Z,47.81
2018-09-01T10:03:41.264Z,47.55
2018-09-01T10:04:41.379Z,46.83
2018-09-01T10:05:41.814Z,47.02
2018-09-01T10:06:41.730Z,48.57
2018-09-01T10:07:41.919Z,49.87
2018-09-01T10:08:42.097Z,50.09
2018-09-01T10:09:42.303Z,50.88
2018-09-01T10:10:42.515Z,52.13
2018-09-01T10:11:42.676Z,52.91
2018-09-01T10:12:42.869Z,51.94
2018-09-01T10:13:43.034Z,51.65
2018-09-01T10:14:43.217Z,50.71
2018-09-01T10:15:43.464Z,50.13
2018-09-01T10:16:43.616Z,49.41
2018-09-01T10:17:43.765Z,49.91
2018-09-01T10:18:43.948Z,51.65
2018-09-01T10:19:44.142Z,52.11
2018-09-01T10:20:44.311Z,53.19
2018-09-01T10:21:44.513Z,50.38
2018-09-01T10:22:44.701Z,49.12
2018-09-01T10:23:44.894Z,46.56
2018-09-01T10:24:44.999Z,45.50
2018-09-01T10:25:45.146Z,44.73
2018-09-01T10:26:45.334Z,44.40
2018-09-01T10:27:45.497Z,42.61
2018-09-01T10:28:45.683Z,41.74
2018-09-01T10:29:45.883Z,42.59
2018-09-01T10:30:46.082Z,43.34
2018-09-01T10:31:46.261Z,43.17
2018-09-01T10:32:46.433Z,42.49
2018-09-01T10:33:46.623Z,41.82
2018-09-01T10:34:46.809Z,43.78
2018-09-01T10:35:46.985Z,43.60
2018-09-01T10:36:47.187Z,45.24
2018-09-01T10:38:47.551Z,45.84
2018-09-01T10:39:47.733Z,44.53
2018-09-01T10:40:47.929Z,43.66
2018-09-01T10:41:48.097Z,43.20
2018-09-01T10:42:48.302Z,42.79
2018-09-01T10:43:48.453Z,42.04
2018-09-01T10:45:48.822Z,41.87
2018-09-01T10:46:49.076Z,42.31
2018-09-01T10:47:49.166Z,42.24
2018-09-01T10:48:49.360Z,42.07
2018-09-01T10:49:49.596Z,41.58
2018-09-01T10:50:49.809Z,42.04
2018-09-01T10:51:49.987Z,43.26
2018-09-01T10:52:50.145Z,43.66
2018-09-01T10:53:50.323Z,43.57
2018-09-01T10:54:50.515Z,44.12
2018-09-01T10:55:50.691Z,44.03
2018-09-01T10:56:50.871Z,43.37
2018-09-01T10:57:51.055Z,42.60
2018-09-01T10:58:51.302Z,42.31
2018-09-01T10:59:51.452Z,42.21
2018-09-01T11:00:51.586Z,42.31
2018-09-01T11:01:51.757Z,42.79
2018-09-01T11:02:51.955Z,42.41
2018-09-01T11:03:52.125Z,42.31
2018-09-01T11:04:52.341Z,42.04
2018-09-01T11:05:52.498Z,41.17
2018-09-01T11:06:52.688Z,41.54
2018-09-01T11:07:52.859Z,42.58
2018-09-01T11:08:53.407Z,42.77
2018-09-01T11:09:53.224Z,43.26
2018-09-01T11:10:53.435Z,42.94
2018-09-01T11:11:53.617Z,43.26
2018-09-01T11:12:53.754Z,43.35
2018-09-01T11:13:53.934Z,42.60
2018-09-01T11:14:54.120Z,41.15
2018-09-01T11:15:54.297Z,41.15
2018-09-01T11:16:54.483Z,40.84
2018-09-01T11:17:54.735Z,41.20
2018-09-01T11:18:54.888Z,42.08
2018-09-01T11:19:55.054Z,41.96
2018-09-01T11:20:55.313Z,42.44
2018-09-01T11:21:55.440Z,42.36
2018-09-01T11:22:55.610Z,42.54
2018-09-01T11:23:55.778Z,42.83
2018-09-01T11:24:55.954Z,43.17
2018-09-01T11:25:56.147Z,43.29
2018-09-01T11:26:56.336Z,43.21
2018-09-01T11:27:56.554Z,42.97
2018-09-01T11:28:56.684Z,43.19
2018-09-01T11:29:56.913Z,43.17
2018-09-01T11:30:57.061Z,43.85
2018-09-01T11:31:57.290Z,43.94
2018-09-01T11:32:57.488Z,43.63
2018-09-01T11:33:57.672Z,44.96
2018-09-01T11:34:57.887Z,45.17
2018-09-01T11:35:58.074Z,44.25
2018-09-01T11:36:58.259Z,43.50
2018-09-01T11:37:58.450Z,41.88
2018-09-01T11:38:58.675Z,41.96
2018-09-01T11:39:58.814Z,41.86
2018-09-01T11:40:58.992Z,41.78
2018-09-01T11:41:59.169Z,41.13
2018-09-01T11:42:59.436Z,41.50
2018-09-01T11:43:59.525Z,40.44
2018-09-01T11:44:59.714Z,40.05
2018-09-01T11:45:59.911Z,40.15
2018-09-01T11:47:00.078Z,39.78
2018-09-01T11:48:00.258Z,40.15
2018-09-01T11:49:00.440Z,39.49
2018-09-01T11:50:00.696Z,39.59
2018-09-01T11:51:00.826Z,38.64
2018-09-01T11:52:00.999Z,37.96
2018-09-01T11:53:01.249Z,37.67
2018-09-01T11:54:01.642Z,38.74
2018-09-01T11:55:01.576Z,38.62
2018-09-01T11:56:01.757Z,40.34
2018-09-01T11:57:01.966Z,40.34
2018-09-01T11:58:02.123Z,40.49
2018-09-01T11:59:02.311Z,40.97
2018-09-01T12:00:02.482Z,40.88
2018-09-01T12:01:02.657Z,41.27
2018-09-01T12:02:02.894Z,41.65
2018-09-01T12:03:03.020Z,41.75
2018-09-01T12:05:03.386Z,40.05
2018-09-01T12:06:03.611Z,40.03
2018-09-01T12:07:03.764Z,40.11
2018-09-01T12:08:03.945Z,39.91
2018-09-01T12:09:04.169Z,40.39
2018-09-01T12:10:04.294Z,40.70
2018-09-01T12:11:04.486Z,40.82
2018-09-01T12:12:04.669Z,40.20
2018-09-01T12:13:04.846Z,40.32
2018-09-01T12:14:05.056Z,40.42
2018-09-01T12:15:05.211Z,40.90
2018-09-01T12:16:05.427Z,40.12
2018-09-01T12:17:05.560Z,40.51
2018-09-01T12:18:05.742Z,41.27
2018-09-01T12:19:05.928Z,41.09
2018-09-01T12:20:06.098Z,40.82
2018-09-01T12:21:06.289Z,40.34
2018-09-01T12:22:06.481Z,40.34
2018-09-01T12:23:06.644Z,40.22
2018-09-01T12:24:06.855Z,41.36
2018-09-01T12:25:07.032Z,41.17
2018-09-01T12:26:07.215Z,40.88
2018-09-01T12:27:07.380Z,40.69
2018-09-01T12:28:07.586Z,40.88
2018-09-01T12:29:07.740Z,40.49
2018-09-01T12:30:07.954Z,40.78
2018-09-01T12:31:08.158Z,40.80
2018-09-01T12:32:08.327Z,41.07
2018-09-01T12:33:08.511Z,40.69
2018-09-01T12:34:08.681Z,40.99
2018-09-01T12:35:08.870Z,40.22
2018-09-01T12:36:09.099Z,39.37
2018-09-01T12:37:09.250Z,39.11
2018-09-01T12:38:09.402Z,38.43
2018-09-01T12:39:09.578Z,38.64
2018-09-01T12:40:09.779Z,38.41
2018-09-01T12:41:09.942Z,38.58
2018-09-01T12:42:10.281Z,39.99
2018-09-01T12:43:10.331Z,40.49
2018-09-01T12:44:10.510Z,40.78
2018-09-01T12:45:10.700Z,40.22
2018-09-01T12:46:10.858Z,39.86
2018-09-01T12:47:11.049Z,39.37
2018-09-01T12:48:11.214Z,38.39
2018-09-01T12:49:11.396Z,39.14
2018-09-01T12:50:11.591Z,39.45
2018-09-01T12:51:11.735Z,39.16
2018-09-01T12:52:11.939Z,38.51
2018-09-01T12:53:12.187Z,38.37
2018-09-01T12:54:12.295Z,39.79
2018-09-01T12:55:12.484Z,39.89
2018-09-01T12:56:12.666Z,39.62
2018-09-01T12:57:12.837Z,39.14
2018-09-01T12:58:13.022Z,38.95
2018-09-01T12:59:13.186Z,38.78
2018-09-01T13:00:13.384Z,38.68
2018-09-01T13:01:13.583Z,38.21
2018-09-01T13:02:13.737Z,38.12
2018-09-01T13:03:13.912Z,37.65
2018-09-01T13:04:14.102Z,36.67
2018-09-01T13:05:14.253Z,36.40